Time;durP1;ratioP1;P1;durP2;ratioP2;P2;SDS_P1;SDS_P2;PMS_P1;PMS_P2;Temp;Humidity;BMP_temperature;BMP_pressure;BME280_temperature;BME280_humidity;BME280_pressure;Samples;Min_cycle;Max_cycle;Signal;HPM_P1;HPM_P2
2022/11/26 00:01:48;;;;;;;167.90;83.80;;;;;;;1.71;90.80;100860.65;103136;1304;23888;-61
2022/11/26 00:04:20;;;;;;;170.40;81.80;;;;;;;1.70;90.91;100865.94;103234;1280;25372;-60
2022/11/26 00:06:53;;;;;;;174.40;85.90;;;;;;;1.70;90.92;100868.37;103190;1282;25329;-61
2022/11/26 00:09:25;;;;;;;174.30;84.20;;;;;;;1.70;91.12;100866.11;103153;1283;25345;-60
2022/11/26 00:11:57;;;;;;;190.80;89.40;;;;;;;1.70;91.26;100867.35;103049;1282;24509;-57
2022/11/26 00:14:30;;;;;;;180.60;87.40;;;;;;;1.72;91.46;100868.36;103062;1281;22480;-61
2022/11/26 00:17:01;;;;;;;172.40;85.60;;;;;;;1.74;91.54;100871.73;103087;1281;22474;-59
2022/11/26 00:19:32;;;;;;;197.30;91.50;;;;;;;1.77;91.67;100869.34;103063;1298;22479;-58
2022/11/26 00:22:04;;;;;;;183.50;86.40;;;;;;;1.80;91.77;100873.96;103088;1288;25208;-60
2022/11/26 00:24:36;;;;;;;178.20;86.40;;;;;;;1.80;91.89;100876.24;103237;1281;22464;-58
2022/11/26 00:27:11;;;;;;;182.80;93.10;;;;;;;1.81;92.00;100874.90;103215;1304;23628;-59
2022/11/26 00:29:42;;;;;;;213.40;108.70;;;;;;;1.83;92.23;100877.56;103193;1304;24452;-61
2022/11/26 00:32:17;;;;;;;218.10;109.60;;;;;;;1.86;92.41;100877.00;103148;1283;24424;-59
2022/11/26 00:34:49;;;;;;;243.80;118.00;;;;;;;1.88;92.52;100875.88;103148;1283;24356;-60
2022/11/26 00:37:23;;;;;;;240.30;118.20;;;;;;;1.91;92.53;100880.90;103081;1283;22479;-59
2022/11/26 00:39:55;;;;;;;232.30;111.50;;;;;;;1.94;92.72;100883.23;103257;1274;25442;-61
2022/11/26 00:42:27;;;;;;;223.90;106.70;;;;;;;1.95;92.71;100885.09;103177;1290;22477;-59
2022/11/26 00:44:58;;;;;;;239.00;117.50;;;;;;;1.98;92.89;100892.23;103020;1289;22508;-60
2022/11/26 00:47:30;;;;;;;234.40;116.70;;;;;;;2.00;93.07;100892.69;103200;1282;25420;-59
2022/11/26 00:50:01;;;;;;;222.30;108.20;;;;;;;2.01;93.22;100890.17;103160;1289;22463;-59
2022/11/26 00:52:35;;;;;;;199.00;98.00;;;;;;;2.02;93.45;100891.02;103205;1281;24234;-61
2022/11/26 00:55:11;;;;;;;200.50;92.40;;;;;;;2.05;93.58;100891.72;103096;1283;24311;-60
2022/11/26 00:57:43;;;;;;;183.80;88.10;;;;;;;2.09;93.68;100892.79;102983;1280;25269;-59
2022/11/26 01:00:20;;;;;;;174.50;80.70;;;;;;;2.12;93.89;100890.33;103038;1305;22744;-59
2022/11/26 01:02:52;;;;;;;161.70;75.80;;;;;;;2.15;94.02;100889.90;103020;1289;22471;-59
2022/11/26 01:05:32;;;;;;;166.80;77.20;;;;;;;2.17;94.14;100885.40;103161;1281;22469;-60
2022/11/26 01:08:15;;;;;;;150.50;74.50;;;;;;;2.20;94.28;100890.89;103068;1305;24322;-59
2022/11/26 01:10:47;;;;;;;151.60;77.20;;;;;;;2.26;94.31;100892.25;103209;1304;22477;-60
2022/11/26 01:13:19;;;;;;;142.60;72.40;;;;;;;2.30;94.34;100891.98;103244;1276;22476;-59
2022/11/26 01:15:50;;;;;;;142.10;69.50;;;;;;;2.32;94.39;100893.68;103003;1281;25306;-62
2022/11/26 01:18:23;;;;;;;145.50;71.50;;;;;;;2.36;94.53;100893.40;103225;1278;25258;-59
2022/11/26 01:20:55;;;;;;;133.30;65.00;;;;;;;2.39;94.65;100890.39;103261;1280;25603;-59
2022/11/26 01:23:26;;;;;;;141.60;66.90;;;;;;;2.43;94.75;100894.86;103157;1270;22475;-60
2022/11/26 01:25:58;;;;;;;127.70;62.60;;;;;;;2.46;94.91;100900.96;103224;1286;22486;-59
2022/11/26 01:28:30;;;;;;;123.60;61.40;;;;;;;2.50;95.01;100899.98;103238;1275;22472;-58
2022/11/26 01:31:01;;;;;;;131.90;60.60;;;;;;;2.55;95.17;100901.04;103179;1299;22541;-58
2022/11/26 01:33:32;;;;;;;115.50;55.40;;;;;;;2.58;95.22;100902.82;103266;1304;22614;-59
2022/11/26 01:36:06;;;;;;;111.60;52.00;;;;;;;2.60;95.28;100901.38;103190;1274;22467;-61
2022/11/26 01:38:37;;;;;;;103.90;47.20;;;;;;;2.64;95.29;100905.58;103200;1305;22504;-58
2022/11/26 01:41:19;;;;;;;95.80;43.00;;;;;;;2.67;95.40;100901.46;103087;1281;22594;-59
2022/11/26 01:43:56;;;;;;;97.50;45.70;;;;;;;2.69;95.49;100903.09;102286;1305;1255182;-59
2022/11/26 01:46:30;;;;;;;98.00;47.70;;;;;;;2.71;95.58;100908.27;103326;1282;22482;-59
2022/11/26 01:49:20;;;;;;;107.20;46.30;;;;;;;2.76;95.62;100913.02;103143;1283;22484;-58
2022/11/26 01:51:59;;;;;;;104.30;50.90;;;;;;;2.80;95.63;100907.38;103065;1281;26708;-58
2022/11/26 01:54:33;;;;;;;102.50;43.80;;;;;;;2.82;95.80;100904.93;103178;1283;22479;-58
2022/11/26 01:57:10;;;;;;;97.90;45.10;;;;;;;2.84;95.79;100902.39;103245;1274;22476;-58
2022/11/26 01:59:45;;;;;;;99.40;42.90;;;;;;;2.86;95.83;100904.57;103076;1304;22485;-59
2022/11/26 02:02:16;;;;;;;107.90;48.30;;;;;;;2.89;95.83;100903.52;103138;1275;23692;-59
2022/11/26 02:04:56;;;;;;;95.10;46.50;;;;;;;2.92;95.89;100899.94;103224;1305;22712;-57
2022/11/26 02:07:27;;;;;;;107.80;52.00;;;;;;;2.96;96.05;100905.33;103622;1277;24261;-59
2022/11/26 02:09:59;;;;;;;120.50;54.50;;;;;;;2.98;95.98;100908.46;103042;1283;22546;-59
2022/11/26 02:12:31;;;;;;;122.80;56.90;;;;;;;2.99;96.08;100907.34;102974;1277;23515;-60
2022/11/26 02:15:02;;;;;;;109.20;49.70;;;;;;;3.00;96.14;100907.48;103288;1287;24424;-59
2022/11/26 02:17:39;;;;;;;98.70;47.70;;;;;;;3.04;96.13;100912.65;103199;1305;25773;-59
2022/11/26 02:20:31;;;;;;;119.00;49.00;;;;;;;3.04;96.20;100911.85;103082;1305;22466;-58
2022/11/26 02:23:30;;;;;;;154.40;60.40;;;;;;;3.06;96.19;100917.34;103143;1305;23089;-60
2022/11/26 02:26:31;;;;;;;148.00;60.40;;;;;;;3.07;96.38;100913.30;103056;1281;22469;-57
2022/11/26 02:29:14;;;;;;;123.20;49.00;;;;;;;3.08;96.51;100914.95;103039;1301;24269;-59
2022/11/26 02:31:49;;;;;;;154.00;62.30;;;;;;;3.11;96.66;100913.20;103080;1305;22469;-58
2022/11/26 02:34:25;;;;;;;101.80;46.20;;;;;;;3.13;96.71;100914.81;103135;1282;24386;-60
2022/11/26 02:37:00;;;;;;;97.70;42.10;;;;;;;3.15;96.85;100915.59;103036;1283;22463;-59
2022/11/26 02:39:33;;;;;;;91.80;42.20;;;;;;;3.17;96.89;100919.58;103070;1305;24325;-58
2022/11/26 02:42:19;;;;;;;91.30;42.90;;;;;;;3.20;96.95;100920.64;103074;1282;25197;-56
2022/11/26 02:44:54;;;;;;;88.90;41.00;;;;;;;3.23;96.98;100926.59;103139;1276;23168;-58
2022/11/26 02:47:27;;;;;;;97.00;45.30;;;;;;;3.25;97.07;100925.78;103157;1281;25335;-58
2022/11/26 02:50:02;;;;;;;89.90;44.10;;;;;;;3.28;97.26;100926.85;103125;1297;24301;-58
2022/11/26 02:52:35;;;;;;;90.30;41.00;;;;;;;3.29;97.28;100925.73;103029;1294;22470;-59
2022/11/26 02:55:12;;;;;;;79.90;38.30;;;;;;;3.32;97.34;100928.30;103196;1305;22525;-60
2022/11/26 02:57:49;;;;;;;79.60;37.30;;;;;;;3.34;97.47;100924.73;103039;1282;23211;-59
2022/11/26 03:00:21;;;;;;;79.60;37.90;;;;;;;3.35;97.45;100921.01;103028;1277;22478;-60
2022/11/26 03:02:59;;;;;;;75.60;35.40;;;;;;;3.38;97.44;100924.77;103188;1281;22455;-58
2022/11/26 03:05:34;;;;;;;70.20;36.90;;;;;;;3.42;97.64;100926.13;102947;1281;22482;-60
2022/11/26 03:08:07;;;;;;;76.00;34.20;;;;;;;3.44;97.84;100928.23;103062;1305;22693;-60
2022/11/26 03:10:38;;;;;;;80.50;36.60;;;;;;;3.47;97.93;100929.38;103097;1305;25373;-60
2022/11/26 03:13:10;;;;;;;82.40;37.30;;;;;;;3.49;97.98;100932.27;103086;1304;22687;-59
2022/11/26 03:15:42;;;;;;;85.40;39.30;;;;;;;3.51;98.00;100933.49;103044;1274;24460;-59
2022/11/26 03:18:13;;;;;;;84.30;37.50;;;;;;;3.53;98.10;100932.85;103054;1294;25186;-60
2022/11/26 03:20:45;;;;;;;86.60;39.50;;;;;;;3.55;98.08;100934.40;103083;1274;22517;-60
2022/11/26 03:23:16;;;;;;;78.10;36.20;;;;;;;3.55;98.16;100938.50;103108;1297;22464;-61
2022/11/26 03:25:47;;;;;;;77.70;38.30;;;;;;;3.55;98.22;100940.70;103059;1284;22547;-59
2022/11/26 03:28:19;;;;;;;75.30;35.70;;;;;;;3.57;98.26;100942.89;103661;1274;25307;-59
2022/11/26 03:30:53;;;;;;;75.70;34.70;;;;;;;3.59;98.36;100944.05;103029;1304;24231;-58
2022/11/26 03:33:24;;;;;;;69.40;32.00;;;;;;;3.61;98.41;100951.11;103218;1284;22481;-58
2022/11/26 03:35:55;;;;;;;69.60;33.50;;;;;;;3.64;98.51;100953.20;103036;1298;22467;-59
2022/11/26 03:38:26;;;;;;;69.30;30.90;;;;;;;3.67;98.55;100952.46;103200;1275;25253;-59
2022/11/26 03:41:04;;;;;;;66.10;31.40;;;;;;;3.69;98.56;100955.76;103105;1304;22487;-58
2022/11/26 03:43:35;;;;;;;66.40;31.10;;;;;;;3.71;98.59;100955.09;103068;1291;25215;-58
2022/11/26 03:46:07;;;;;;;67.40;30.40;;;;;;;3.75;98.70;100957.25;103054;1284;22480;-59
2022/11/26 03:48:38;;;;;;;71.90;30.00;;;;;;;3.76;98.82;100956.04;103072;1303;24387;-58
2022/11/26 03:51:10;;;;;;;67.40;28.90;;;;;;;3.77;98.89;100960.21;103019;1285;25312;-61
2022/11/26 03:53:41;;;;;;;72.50;31.80;;;;;;;3.80;98.90;100964.52;103065;1281;22480;-59
2022/11/26 03:56:14;;;;;;;67.00;29.70;;;;;;;3.82;99.03;100958.63;103108;1282;22465;-59
2022/11/26 03:58:45;;;;;;;62.70;29.20;;;;;;;3.84;99.04;100959.00;103159;1301;22472;-59
2022/11/26 04:01:17;;;;;;;66.40;30.40;;;;;;;3.86;99.09;100959.14;103055;1289;23733;-57
2022/11/26 04:03:49;;;;;;;70.00;29.50;;;;;;;3.88;99.12;100960.84;103188;1287;25399;-58
2022/11/26 04:06:20;;;;;;;72.10;33.50;;;;;;;3.90;99.24;100963.58;103090;1274;22502;-58
2022/11/26 04:08:52;;;;;;;68.30;33.20;;;;;;;3.92;99.22;100963.16;103124;1287;26423;-59
2022/11/26 04:11:23;;;;;;;65.10;31.50;;;;;;;3.93;99.25;100959.02;102974;1281;22462;-59
2022/11/26 04:13:54;;;;;;;61.80;29.20;;;;;;;3.95;99.37;100962.48;103018;1278;25272;-59
2022/11/26 04:16:26;;;;;;;65.90;29.30;;;;;;;3.98;99.47;100963.78;103014;1283;22533;-59
2022/11/26 04:18:57;;;;;;;64.90;28.40;;;;;;;4.00;99.51;100967.38;103123;1283;22472;-59
2022/11/26 04:21:29;;;;;;;62.10;26.70;;;;;;;4.03;99.54;100969.93;102797;1305;22495;-59
2022/11/26 04:24:00;;;;;;;58.50;26.80;;;;;;;4.06;99.55;100976.14;103039;1281;25293;-59
2022/11/26 04:26:32;;;;;;;59.00;26.50;;;;;;;4.07;99.66;100973.74;102982;1284;22503;-59
2022/11/26 04:29:03;;;;;;;56.20;23.50;;;;;;;4.08;99.64;100974.52;103058;1305;24335;-59
2022/11/26 04:31:34;;;;;;;54.20;25.70;;;;;;;4.09;99.64;100975.70;102982;1291;22490;-59
2022/11/26 04:34:07;;;;;;;52.40;24.40;;;;;;;4.11;99.72;100973.23;103062;1281;22474;-60
2022/11/26 04:36:39;;;;;;;62.80;26.50;;;;;;;4.13;99.90;100976.04;103045;1274;25353;-60
2022/11/26 04:39:11;;;;;;;56.80;23.60;;;;;;;4.14;99.94;100977.11;103062;1277;22478;-60
2022/11/26 04:41:43;;;;;;;54.90;23.50;;;;;;;4.16;99.92;100978.98;103067;1283;24326;-58
2022/11/26 04:44:15;;;;;;;51.20;22.30;;;;;;;4.18;100.00;100982.05;103008;1283;22495;-61
2022/11/26 04:46:46;;;;;;;62.00;24.30;;;;;;;4.19;100.00;100981.48;103118;1278;22601;-59
2022/11/26 04:49:18;;;;;;;50.20;21.80;;;;;;;4.20;100.00;100985.01;103008;1275;22460;-58
2022/11/26 04:51:49;;;;;;;55.80;24.60;;;;;;;4.20;100.00;100989.20;102888;1281;22485;-59
2022/11/26 04:54:21;;;;;;;53.10;24.10;;;;;;;4.20;100.00;100992.05;103009;1284;22466;-59
2022/11/26 04:56:52;;;;;;;48.70;21.40;;;;;;;4.19;100.00;100992.67;103030;1284;25219;-59
2022/11/26 04:59:23;;;;;;;53.10;21.90;;;;;;;4.21;100.00;100995.89;103095;1282;22482;-57
2022/11/26 05:01:55;;;;;;;52.80;21.50;;;;;;;4.22;100.00;100997.52;102943;1297;23208;-58
2022/11/26 05:04:27;;;;;;;50.60;21.30;;;;;;;4.25;100.00;100998.59;103050;1274;24418;-59
2022/11/26 05:06:58;;;;;;;46.10;19.60;;;;;;;4.27;100.00;100997.23;103066;1274;22476;-57
2022/11/26 05:09:30;;;;;;;50.20;21.40;;;;;;;4.28;100.00;101002.17;102948;1274;22674;-57
2022/11/26 05:12:01;;;;;;;46.80;21.10;;;;;;;4.29;100.00;101005.48;103106;1281;25363;-58
2022/11/26 05:14:33;;;;;;;47.90;20.90;;;;;;;4.30;100.00;101006.98;102998;1284;25311;-57
2022/11/26 05:17:04;;;;;;;45.50;21.40;;;;;;;4.30;100.00;101010.68;103046;1305;26624;-58
2022/11/26 05:19:35;;;;;;;46.30;19.90;;;;;;;4.33;100.00;101012.45;103041;1281;25335;-57
2022/11/26 05:22:07;;;;;;;47.30;21.00;;;;;;;4.33;100.00;101019.70;102943;1274;22597;-59
2022/11/26 05:24:38;;;;;;;47.20;21.30;;;;;;;4.34;100.00;101016.77;103132;1281;26497;-59
2022/11/26 05:27:09;;;;;;;46.40;21.30;;;;;;;4.35;100.00;101019.45;103018;1296;23124;-58
2022/11/26 05:29:41;;;;;;;45.10;20.60;;;;;;;4.37;100.00;101019.82;103072;1281;24464;-59
2022/11/26 05:32:13;;;;;;;46.50;20.80;;;;;;;4.37;100.00;101023.44;103194;1274;22474;-59
2022/11/26 05:34:44;;;;;;;46.90;20.00;;;;;;;4.39;100.00;101024.84;103062;1298;22559;-59
2022/11/26 05:37:16;;;;;;;48.50;23.30;;;;;;;4.40;100.00;101029.56;103119;1288;25357;-58
2022/11/26 05:39:47;;;;;;;47.80;21.30;;;;;;;4.42;100.00;101028.59;103131;1274;22483;-59
2022/11/26 05:42:18;;;;;;;51.30;21.60;;;;;;;4.44;100.00;101030.77;103181;1281;22674;-59
2022/11/26 05:44:50;;;;;;;46.70;20.10;;;;;;;4.46;100.00;101036.02;103140;1274;22464;-58
2022/11/26 05:47:22;;;;;;;46.10;20.50;;;;;;;4.48;100.00;101039.88;103166;1305;22478;-57
2022/11/26 05:49:54;;;;;;;46.10;19.60;;;;;;;4.51;100.00;101039.50;103124;1283;22466;-59
2022/11/26 05:52:26;;;;;;;45.70;22.00;;;;;;;4.55;100.00;101042.37;103220;1280;24392;-57
2022/11/26 05:54:57;;;;;;;43.80;20.00;;;;;;;4.57;100.00;101048.98;103067;1286;22496;-57
2022/11/26 05:57:29;;;;;;;50.00;22.10;;;;;;;4.58;100.00;101044.93;103131;1281;22491;-58
2022/11/26 06:00:00;;;;;;;44.80;19.90;;;;;;;4.59;100.00;101045.77;102984;1301;25387;-57
2022/11/26 06:02:32;;;;;;;44.80;20.20;;;;;;;4.62;100.00;101052.22;103178;1298;22465;-57
2022/11/26 06:05:03;;;;;;;46.20;18.70;;;;;;;4.62;100.00;101053.23;103110;1305;22616;-59
2022/11/26 06:07:35;;;;;;;43.80;20.60;;;;;;;4.63;100.00;101055.52;102961;1274;22485;-58
2022/11/26 06:10:08;;;;;;;54.60;20.90;;;;;;;4.64;100.00;101055.41;103025;1283;22427;-59
2022/11/26 06:12:40;;;;;;;39.50;17.20;;;;;;;4.67;100.00;101058.36;103362;1277;22588;-60
2022/11/26 06:15:12;;;;;;;39.60;17.30;;;;;;;4.71;100.00;101058.70;103266;1280;22579;-59
2022/11/26 06:17:44;;;;;;;37.80;16.60;;;;;;;4.73;100.00;101058.74;103386;1287;22850;-59
2022/11/26 06:20:16;;;;;;;39.90;17.80;;;;;;;4.77;100.00;101064.36;103082;1283;24393;-59
2022/11/26 06:22:48;;;;;;;48.10;18.90;;;;;;;4.80;100.00;101069.63;103400;1299;24322;-58
2022/11/26 06:25:19;;;;;;;43.70;19.50;;;;;;;4.82;100.00;101069.59;103068;1277;25359;-59
2022/11/26 06:27:51;;;;;;;39.90;17.30;;;;;;;4.86;100.00;101072.92;103267;1281;22675;-59
2022/11/26 06:30:23;;;;;;;44.90;21.10;;;;;;;4.89;100.00;101076.51;103324;1304;25329;-59
2022/11/26 06:32:55;;;;;;;40.70;17.80;;;;;;;4.91;100.00;101080.98;103314;1298;22422;-59
2022/11/26 06:35:26;;;;;;;32.60;13.70;;;;;;;4.95;100.00;101082.02;103146;1283;22475;-59
2022/11/26 06:37:58;;;;;;;34.80;14.90;;;;;;;4.98;100.00;101086.16;103345;1299;24315;-59
2022/11/26 06:40:29;;;;;;;35.90;13.80;;;;;;;5.01;100.00;101085.73;103108;1281;22994;-59
2022/11/26 06:43:01;;;;;;;32.30;13.50;;;;;;;5.03;100.00;101092.64;103339;1274;22472;-57
2022/11/26 06:45:34;;;;;;;36.00;13.70;;;;;;;5.06;100.00;101093.86;103127;1282;24231;-59
2022/11/26 06:48:06;;;;;;;31.00;14.00;;;;;;;5.08;100.00;101099.59;103338;1277;24217;-59
2022/11/26 06:50:38;;;;;;;34.40;14.40;;;;;;;5.11;100.00;101105.96;103081;1283;22477;-58
2022/11/26 06:53:10;;;;;;;35.50;14.10;;;;;;;5.13;100.00;101104.09;103012;1274;22514;-60
2022/11/26 06:55:42;;;;;;;29.20;13.20;;;;;;;5.15;100.00;101111.10;103116;1305;23337;-59
2022/11/26 06:58:15;;;;;;;31.80;12.00;;;;;;;5.18;100.00;101112.16;103291;1282;22494;-59
2022/11/26 07:00:47;;;;;;;35.60;14.40;;;;;;;5.19;100.00;101109.21;103115;1281;22485;-59
2022/11/26 07:03:18;;;;;;;31.60;13.60;;;;;;;5.22;100.00;101118.51;103129;1274;22476;-62
2022/11/26 07:05:51;;;;;;;32.30;13.70;;;;;;;5.24;100.00;101119.49;103022;1291;25299;-59
2022/11/26 07:08:22;;;;;;;32.10;14.30;;;;;;;5.27;100.00;101124.52;103037;1284;24325;-59
2022/11/26 07:10:54;;;;;;;32.30;13.50;;;;;;;5.29;100.00;101129.14;103115;1281;25357;-59
2022/11/26 07:13:25;;;;;;;29.20;12.60;;;;;;;5.31;100.00;101129.98;103247;1281;24235;-61
2022/11/26 07:16:01;;;;;;;28.90;12.30;;;;;;;5.33;100.00;101133.98;103040;1277;22580;-62
2022/11/26 07:18:33;;;;;;;27.50;11.40;;;;;;;5.36;100.00;101136.30;103003;1284;22539;-60
2022/11/26 07:21:09;;;;;;;26.80;11.40;;;;;;;5.39;100.00;101143.91;103185;1281;25129;-59
2022/11/26 07:23:41;;;;;;;27.90;11.00;;;;;;;5.42;100.00;101143.40;103122;1280;25211;-59
2022/11/26 07:26:14;;;;;;;27.40;11.60;;;;;;;5.44;100.00;101145.41;103152;1303;22471;-59
2022/11/26 07:28:46;;;;;;;30.60;11.60;;;;;;;5.46;100.00;101151.30;103213;1297;22534;-59
2022/11/26 07:31:20;;;;;;;24.50;9.70;;;;;;;5.49;100.00;101155.36;103178;1280;22473;-59
2022/11/26 07:33:51;;;;;;;30.90;11.50;;;;;;;5.51;100.00;101157.15;103147;1293;22476;-61
2022/11/26 07:36:25;;;;;;;28.80;12.30;;;;;;;5.53;100.00;101161.93;103263;1281;22590;-62
2022/11/26 07:38:58;;;;;;;26.80;11.40;;;;;;;5.56;100.00;101161.42;103243;1285;25145;-60
2022/11/26 07:41:30;;;;;;;30.60;13.00;;;;;;;5.58;100.00;101161.95;103133;1284;25435;-59
2022/11/26 07:44:02;;;;;;;29.50;13.40;;;;;;;5.61;100.00;101167.73;103138;1280;22603;-59
2022/11/26 07:46:33;;;;;;;30.80;14.30;;;;;;;5.62;100.00;101170.25;103207;1303;22494;-59
2022/11/26 07:49:05;;;;;;;28.90;12.70;;;;;;;5.63;100.00;101170.55;103130;1284;22527;-57
2022/11/26 07:51:38;;;;;;;29.40;12.70;;;;;;;5.65;100.00;101170.67;103841;1282;24242;-59
2022/11/26 07:54:10;;;;;;;27.40;11.90;;;;;;;5.66;100.00;101174.06;103423;1277;24441;-59
2022/11/26 07:56:42;;;;;;;28.80;11.60;;;;;;;5.66;100.00;101176.50;103073;1281;25317;-59
2022/11/26 07:59:15;;;;;;;29.80;12.70;;;;;;;5.68;100.00;101180.75;103214;1274;22743;-59
2022/11/26 08:01:47;;;;;;;28.30;12.60;;;;;;;5.69;100.00;101184.67;103806;1275;24267;-59
2022/11/26 08:04:20;;;;;;;28.30;12.10;;;;;;;5.72;100.00;101187.56;103099;1274;22554;-59
2022/11/26 08:06:52;;;;;;;29.20;12.90;;;;;;;5.73;100.00;101187.30;103430;1281;22454;-58
2022/11/26 08:09:23;;;;;;;26.50;11.40;;;;;;;5.76;100.00;101191.67;103076;1276;22646;-59
2022/11/26 08:11:55;;;;;;;30.10;11.90;;;;;;;5.79;100.00;101192.92;103077;1281;22690;-58
2022/11/26 08:14:27;;;;;;;26.90;12.00;;;;;;;5.81;100.00;101192.15;103124;1280;24241;-57
2022/11/26 08:16:58;;;;;;;27.10;10.00;;;;;;;5.84;100.00;101193.15;103118;1283;25285;-58
2022/11/26 08:19:30;;;;;;;24.30;10.90;;;;;;;5.87;100.00;101197.60;103310;1278;25286;-59
2022/11/26 08:22:01;;;;;;;25.20;10.50;;;;;;;5.91;100.00;101197.31;103119;1280;25477;-58
2022/11/26 08:24:34;;;;;;;26.30;9.50;;;;;;;5.95;100.00;101202.84;103074;1279;22469;-58
2022/11/26 08:27:06;;;;;;;24.30;8.70;;;;;;;5.98;100.00;101207.94;103047;1282;25363;-59
2022/11/26 08:29:39;;;;;;;25.10;10.20;;;;;;;6.01;100.00;101208.50;103280;1284;25249;-58
2022/11/26 08:32:11;;;;;;;25.00;9.70;;;;;;;6.05;100.00;101207.33;103135;1290;22883;-59
2022/11/26 08:34:42;;;;;;;22.40;9.20;;;;;;;6.08;100.00;101212.83;103184;1274;22605;-57
2022/11/26 08:37:14;;;;;;;22.10;8.70;;;;;;;6.11;100.00;101214.59;102969;1274;25292;-59
2022/11/26 08:39:45;;;;;;;21.80;9.10;;;;;;;6.13;100.00;101217.71;103071;1305;23140;-59
2022/11/26 08:42:17;;;;;;;22.10;7.50;;;;;;;6.16;100.00;101218.70;102991;1277;25370;-59
2022/11/26 08:44:50;;;;;;;25.00;7.80;;;;;;;6.18;100.00;101223.23;102892;1282;22470;-60
2022/11/26 08:47:22;;;;;;;18.90;6.90;;;;;;;6.20;100.00;101226.45;103107;1273;22525;-58
2022/11/26 08:49:53;;;;;;;18.30;6.20;;;;;;;6.21;100.00;101225.25;103256;1305;23907;-58
2022/11/26 08:52:25;;;;;;;18.50;5.60;;;;;;;6.24;100.00;101227.64;103069;1280;22599;-59
2022/11/26 08:54:57;;;;;;;13.60;4.90;;;;;;;6.26;100.00;101232.98;103241;1281;25490;-58
2022/11/26 08:57:29;;;;;;;14.30;5.60;;;;;;;6.27;100.00;101234.24;103071;1280;22998;-57
2022/11/26 09:00:01;;;;;;;14.40;4.30;;;;;;;6.28;100.00;101234.61;103129;1280;22586;-58
2022/11/26 09:02:33;;;;;;;16.80;5.60;;;;;;;6.31;100.00;101240.19;103160;1282;22556;-58
2022/11/26 09:05:06;;;;;;;13.20;5.00;;;;;;;6.33;100.00;101245.06;103062;1292;22479;-59
2022/11/26 09:07:38;;;;;;;16.20;4.70;;;;;;;6.35;100.00;101246.60;103352;1296;24887;-58
2022/11/26 09:10:11;;;;;;;13.90;4.00;;;;;;;6.35;100.00;101246.42;103268;1276;22478;-58
2022/11/26 09:12:44;;;;;;;14.70;4.70;;;;;;;6.35;100.00;101253.66;103291;1280;22494;-57
2022/11/26 09:15:15;;;;;;;14.40;4.20;;;;;;;6.35;100.00;101251.35;103034;1280;22601;-58
2022/11/26 09:17:48;;;;;;;15.10;4.60;;;;;;;6.35;100.00;101253.33;103209;1281;22584;-59
2022/11/26 09:20:19;;;;;;;16.50;5.00;;;;;;;6.35;100.00;101249.77;103191;1284;25195;-58
2022/11/26 09:22:51;;;;;;;12.60;4.30;;;;;;;6.36;100.00;101256.63;103292;1282;22497;-58
2022/11/26 09:25:24;;;;;;;13.10;3.90;;;;;;;6.37;100.00;101256.77;103009;1280;22477;-58
2022/11/26 09:27:56;;;;;;;14.40;3.60;;;;;;;6.37;100.00;101260.17;103275;1298;23076;-58
2022/11/26 09:30:27;;;;;;;10.80;2.90;;;;;;;6.39;100.00;101256.91;103131;1281;22525;-57
2022/11/26 09:32:59;;;;;;;12.10;3.20;;;;;;;6.40;100.00;101257.04;103133;1306;22627;-58
2022/11/26 09:35:31;;;;;;;12.60;4.00;;;;;;;6.42;100.00;101258.52;103080;1274;22500;-59
2022/11/26 09:38:03;;;;;;;10.80;3.20;;;;;;;6.43;100.00;101255.61;103219;1278;23874;-58
2022/11/26 09:40:45;;;;;;;11.50;3.80;;;;;;;6.45;100.00;101257.89;103175;1291;22487;-58
2022/11/26 09:43:25;;;;;;;16.10;3.30;;;;;;;6.46;100.00;101256.11;103007;1300;25240;-57
2022/11/26 09:46:01;;;;;;;10.30;3.20;;;;;;;6.47;100.00;101258.40;103159;1281;24186;-58
2022/11/26 09:48:35;;;;;;;7.70;2.20;;;;;;;6.48;100.00;101265.36;103088;1281;25546;-58
2022/11/26 09:51:12;;;;;;;12.40;3.20;;;;;;;6.47;100.00;101261.25;103037;1281;24426;-57
2022/11/26 09:53:47;;;;;;;11.90;2.70;;;;;;;6.48;100.00;101263.13;103042;1282;25206;-58
2022/11/26 09:56:25;;;;;;;11.90;3.10;;;;;;;6.48;100.00;101265.69;103205;1280;22617;-59
2022/11/26 09:59:00;;;;;;;8.30;2.50;;;;;;;6.47;100.00;101265.77;103080;1305;24026;-58
2022/11/26 10:01:34;;;;;;;9.10;2.60;;;;;;;6.48;100.00;101277.16;103153;1274;22476;-59
2022/11/26 10:04:09;;;;;;;9.30;2.80;;;;;;;6.49;100.00;101273.75;103051;1283;22514;-58
2022/11/26 10:06:47;;;;;;;11.60;3.10;;;;;;;6.49;100.00;101274.45;103015;1298;22961;-59
2022/11/26 10:09:34;;;;;;;9.20;3.10;;;;;;;6.51;100.00;101274.42;102981;1274;22480;-59
2022/11/26 10:12:18;;;;;;;7.70;2.00;;;;;;;6.51;100.00;101279.41;103114;1294;24467;-59
2022/11/26 10:15:01;;;;;;;9.50;2.00;;;;;;;6.52;100.00;101280.02;103101;1274;22472;-58
2022/11/26 10:17:42;;;;;;;9.00;1.90;;;;;;;6.53;100.00;101281.27;103166;1280;22617;-58
2022/11/26 10:20:39;;;;;;;7.70;2.00;;;;;;;6.54;100.00;101280.21;103086;1298;22489;-56
2022/11/26 10:23:22;;;;;;;8.20;2.20;;;;;;;6.56;100.00;101282.88;102919;1282;22956;-58
2022/11/26 10:25:59;;;;;;;7.20;1.90;;;;;;;6.58;100.00;101284.29;102938;1309;26604;-57
2022/11/26 10:28:34;;;;;;;8.00;2.20;;;;;;;6.58;100.00;101289.02;103080;1285;22470;-57
2022/11/26 10:31:13;;;;;;;6.90;1.80;;;;;;;6.57;100.00;101287.70;102895;1286;22663;-58
2022/11/26 10:33:53;;;;;;;8.30;2.20;;;;;;;6.56;100.00;101290.97;102872;1285;22560;-56
2022/11/26 10:36:32;;;;;;;13.10;4.40;;;;;;;6.52;100.00;101295.78;102841;1285;25991;-57
2022/11/26 10:39:04;;;;;;;29.90;11.80;;;;;;;6.49;100.00;101296.16;102893;1295;25666;-57
2022/11/26 10:41:37;;;;;;;19.20;7.40;;;;;;;6.48;100.00;101298.27;102981;1285;22492;-57
2022/11/26 10:44:30;;;;;;;16.60;5.90;;;;;;;6.47;100.00;101299.21;102968;1278;22511;-58
2022/11/26 10:47:20;;;;;;;16.60;5.50;;;;;;;6.48;100.00;101298.02;102936;1309;25224;-55
2022/11/26 10:49:52;;;;;;;19.30;7.90;;;;;;;6.47;100.00;101302.79;103008;1290;22481;-57
2022/11/26 10:52:28;;;;;;;16.90;6.80;;;;;;;6.43;100.00;101303.25;102987;1284;22613;-57
2022/11/26 10:55:21;;;;;;;17.00;7.00;;;;;;;6.45;100.00;101305.93;102890;1287;25306;-58
2022/11/26 10:57:55;;;;;;;18.80;7.40;;;;;;;6.45;100.00;101308.53;102791;1285;22476;-57
2022/11/26 11:00:44;;;;;;;20.60;8.60;;;;;;;6.46;100.00;101310.10;102970;1284;22638;-58
2022/11/26 11:03:20;;;;;;;28.20;8.70;;;;;;;6.46;100.00;101309.22;103166;1291;25443;-58
2022/11/26 11:06:09;;;;;;;18.80;7.00;;;;;;;6.46;100.00;101310.98;103094;1282;22535;-59
2022/11/26 11:08:41;;;;;;;17.20;7.00;;;;;;;6.42;100.00;101313.91;103292;1280;25530;-59
2022/11/26 11:11:21;;;;;;;18.40;7.10;;;;;;;6.37;100.00;101316.77;103047;1280;22474;-58
2022/11/26 11:13:54;;;;;;;18.10;7.00;;;;;;;6.32;100.00;101314.97;103045;1285;25344;-58
2022/11/26 11:16:29;;;;;;;17.70;7.70;;;;;;;6.27;100.00;101323.54;103004;1280;25297;-60
2022/11/26 11:19:05;;;;;;;20.70;8.20;;;;;;;6.19;100.00;101322.56;103003;1280;22980;-59
2022/11/26 11:21:38;;;;;;;22.20;8.20;;;;;;;6.15;100.00;101321.67;103131;1305;22486;-58
2022/11/26 11:24:18;;;;;;;21.30;9.20;;;;;;;6.12;100.00;101323.88;103324;1305;22731;-57
2022/11/26 11:26:53;;;;;;;23.70;10.20;;;;;;;6.11;100.00;101327.15;103041;1280;22480;-57
2022/11/26 11:29:33;;;;;;;29.40;12.40;;;;;;;6.12;100.00;101331.33;103087;1280;22951;-57
2022/11/26 11:32:26;;;;;;;28.90;13.20;;;;;;;6.11;100.00;101336.02;103182;1305;22571;-58
2022/11/26 11:35:22;;;;;;;28.60;13.90;;;;;;;6.08;100.00;101339.00;103184;1305;22476;-57